British Emerald — MIBR — position and weather

sailwx.info

Track history (hours):
 
Tides and Currents Weather Stations Pressure Air Temp Water Temp Dewpoint Dewpoint Depression Visibility Wind Speed Wind Dir Waves Ship Positions

British Emerald

Last reported at 2014-Sep-24 14:20 UTC. Time now 2014-Oct-01 06:12 UTC.
Position N 31°24' E 032°18'.

Type: Ship (hazmat cat A). MMSI: 235050369.

Date/timePositionNaut miles runAvg speedWind from/ knotsBaromVisibWave heightAir tempDewpointWater temp
2014-Sep-24 14:20N 31°24' E 032°18'0 0.0
2014-Sep-24 13:23N 31°24' E 032°18'0 0.0
2014-Sep-24 12:29N 31°24' E 032°18'0 0.0
2014-Sep-24 11:32N 31°24' E 032°18'0 0.0
2014-Sep-24 08:18N 31°24' E 032°18'11016.3
2014-Sep-24 01:33N 32°14' E 030°22'2719.1
2014-Sep-24 00:08N 32°22' E 029°51'1118.8
2014-Sep-23 23:33N 32°26' E 029°39'7418.5
2014-Sep-23 19:32N 32°54' E 028°17'3819.1
2014-Sep-23 17:33N 33°07' E 027°35'28819.2
2014-Sep-23 02:33N 34°46' E 022°09'3220.7
2014-Sep-23 01:00N 34°48' E 021°30'22618.8 210 / 171011.4 5.4 25.725.3
2014-Sep-22 13:00N 35°36' E 017°00'8418.9 220 / 151013.7 5.4 0.527.525.4
2014-Sep-22 08:33N 35°59' E 015°21'1919.1
2014-Sep-22 07:33N 36°02' E 014°57'1515.4
2014-Sep-22 06:33N 35°59' E 014°39'1 1.1
2014-Sep-22 05:33N 35°58' E 014°37'7 7.3
2014-Sep-22 04:33N 36°03' E 014°31'1413.8
2014-Sep-22 03:33N 36°13' E 014°19'2 1.6
2014-Sep-22 02:33N 36°14' E 014°17'1110.8
2014-Sep-22 01:33N 36°19' E 014°05'8 7.7
2014-Sep-22 00:33N 36°15' E 014°13'5 5.2
2014-Sep-21 23:33N 36°13' E 014°19'1313.1
2014-Sep-21 22:33N 36°09' E 014°35'1111.2
2014-Sep-21 21:33N 36°06' E 014°48'1413.7
2014-Sep-21 20:33N 36°11' E 014°32'1414.3
2014-Sep-21 19:33N 36°16' E 014°16'1010.2
2014-Sep-21 18:33N 36°17' E 014°03'1312.7
2014-Sep-21 17:33N 36°13' E 014°18'1312.7
2014-Sep-21 16:33N 36°10' E 014°33'9 9.0
2014-Sep-21 15:33N 36°05' E 014°43'1413.7
2014-Sep-21 14:34N 36°11' E 014°27'1414.3
2014-Sep-21 13:34N 36°15' E 014°11'2019.9
2014-Sep-21 12:34N 36°21' E 013°47'1716.8
2014-Sep-21 11:33N 36°25' E 013°27'5 5.4
2014-Sep-21 10:33N 36°27' E 013°21'1313.5
2014-Sep-21 09:33N 36°31' E 013°04'1413.6
2014-Sep-21 08:33N 36°37' E 012°49'1616.2
2014-Sep-21 07:33N 36°42' E 012°30'1716.6
2014-Sep-21 06:33N 36°50' E 012°12'1514.8
2014-Sep-21 05:32N 36°58' E 011°55'1313.4
2014-Sep-21 04:33N 37°05' E 011°42'1816.1
2014-Sep-21 03:28N 37°15' E 011°23'1516.8
2014-Sep-21 02:33N 37°22' E 011°07'1716.7
2014-Sep-21 01:33N 37°27' E 010°46'1717.2
2014-Sep-21 00:33N 37°31' E 010°25'1717.2
2014-Sep-20 23:33N 37°33' E 010°04'1717.4
2014-Sep-20 22:33N 37°29' E 009°42'1717.4
2014-Sep-20 21:33N 37°26' E 009°21'1717.2
2014-Sep-20 20:33N 37°22' E 008°59'1716.8
2014-Sep-20 19:33N 37°19' E 008°39'1716.5
2014-Sep-20 18:33N 37°20' E 008°18'1716.6
2014-Sep-20 17:32N 37°21' E 007°57'10516.6
2014-Sep-20 11:11N 37°21' E 005°45'1116.4
2014-Sep-20 10:30N 37°20' E 005°30'1616.7
2014-Sep-20 09:33N 37°20' E 005°11'5117.1
2014-Sep-20 06:33N 37°21' E 004°06'1018.0
2014-Sep-20 06:00N 37°18' E 003°54'919.6 210 / 201014.9 5.4 27.120.1
2014-Sep-20 05:31N 37°22' E 003°43'1617.0
2014-Sep-20 04:33N 37°22' E 003°23'1816.9
2014-Sep-20 03:28N 37°21' E 002°60'1616.9
2014-Sep-20 02:33N 37°20' E 002°40'1716.9
2014-Sep-20 01:33N 37°20' E 002°19'1716.7
2014-Sep-20 00:33N 37°19' E 001°58'1616.3
2014-Sep-19 23:33N 37°18' E 001°37'3916.3
2014-Sep-19 21:10N 37°16' E 000°48'739.9
2014-Sep-19 21:00N 37°12' E 000°42'614.8 040 / 71014.210.8 24.421.4
2014-Sep-19 20:33N 37°16' E 000°36'1716.6
2014-Sep-19 19:33N 37°15' E 000°15'1616.3
2014-Sep-19 18:33N 37°17' W 000°05'5 9.4
2014-Sep-19 18:00N 37°18' W 000°12'1125.6 290 / 301012.510.8 25.018.426.3
2014-Sep-19 17:33N 37°22' W 000°25'1616.1
2014-Sep-19 16:33N 37°26' W 000°45'  
2014-Sep-15 19:13N 37°18' W 001°01'3217.9
2014-Sep-15 17:27N 36°54' W 001°28'39516.8
2014-Sep-14 18:00N 37°00' W 009°42'   290 / 101013.810.8 23.018.323.5
Track history (hours):
 
Tides and Currents Weather Stations Pressure Air Temp Water Temp Dewpoint Dewpoint Depression Visibility Wind Speed Wind Dir Waves Ship Positions

British Emerald

Last reported at 2014-Sep-24 14:20 UTC. Time now 2014-Oct-01 06:12 UTC.
Position N 31°24' E 032°18'.

Type: Ship (hazmat cat A). MMSI: 235050369.

Date/timePositionNaut miles runAvg speedWind from/ knotsBaromVisibWave heightAir tempDewpointWater temp
2014-Sep-24 14:20N 31°24' E 032°18'0 0.0
2014-Sep-24 13:23N 31°24' E 032°18'0 0.0
2014-Sep-24 12:29N 31°24' E 032°18'0 0.0
2014-Sep-24 11:32N 31°24' E 032°18'0 0.0
2014-Sep-24 08:18N 31°24' E 032°18'11016.3
2014-Sep-24 01:33N 32°14' E 030°22'2719.1
2014-Sep-24 00:08N 32°22' E 029°51'1118.8
2014-Sep-23 23:33N 32°26' E 029°39'7418.5
2014-Sep-23 19:32N 32°54' E 028°17'3819.1
2014-Sep-23 17:33N 33°07' E 027°35'28819.2
2014-Sep-23 02:33N 34°46' E 022°09'3220.7
2014-Sep-23 01:00N 34°48' E 021°30'22618.8 210 / 171011.4 5.4 25.725.3
2014-Sep-22 13:00N 35°36' E 017°00'8418.9 220 / 151013.7 5.4 0.527.525.4
2014-Sep-22 08:33N 35°59' E 015°21'1919.1
2014-Sep-22 07:33N 36°02' E 014°57'1515.4
2014-Sep-22 06:33N 35°59' E 014°39'1 1.1
2014-Sep-22 05:33N 35°58' E 014°37'7 7.3
2014-Sep-22 04:33N 36°03' E 014°31'1413.8
2014-Sep-22 03:33N 36°13' E 014°19'2 1.6
2014-Sep-22 02:33N 36°14' E 014°17'1110.8
2014-Sep-22 01:33N 36°19' E 014°05'8 7.7
2014-Sep-22 00:33N 36°15' E 014°13'5 5.2
2014-Sep-21 23:33N 36°13' E 014°19'1313.1
2014-Sep-21 22:33N 36°09' E 014°35'1111.2
2014-Sep-21 21:33N 36°06' E 014°48'1413.7
2014-Sep-21 20:33N 36°11' E 014°32'1414.3
2014-Sep-21 19:33N 36°16' E 014°16'1010.2
2014-Sep-21 18:33N 36°17' E 014°03'1312.7
2014-Sep-21 17:33N 36°13' E 014°18'1312.7
2014-Sep-21 16:33N 36°10' E 014°33'9 9.0
2014-Sep-21 15:33N 36°05' E 014°43'1413.7
2014-Sep-21 14:34N 36°11' E 014°27'1414.3
2014-Sep-21 13:34N 36°15' E 014°11'2019.9
2014-Sep-21 12:34N 36°21' E 013°47'1716.8
2014-Sep-21 11:33N 36°25' E 013°27'5 5.4
2014-Sep-21 10:33N 36°27' E 013°21'1313.5
2014-Sep-21 09:33N 36°31' E 013°04'1413.6
2014-Sep-21 08:33N 36°37' E 012°49'1616.2
2014-Sep-21 07:33N 36°42' E 012°30'1716.6
2014-Sep-21 06:33N 36°50' E 012°12'1514.8
2014-Sep-21 05:32N 36°58' E 011°55'1313.4
2014-Sep-21 04:33N 37°05' E 011°42'1816.1
2014-Sep-21 03:28N 37°15' E 011°23'1516.8
2014-Sep-21 02:33N 37°22' E 011°07'1716.7
2014-Sep-21 01:33N 37°27' E 010°46'1717.2
2014-Sep-21 00:33N 37°31' E 010°25'1717.2
2014-Sep-20 23:33N 37°33' E 010°04'1717.4
2014-Sep-20 22:33N 37°29' E 009°42'1717.4
2014-Sep-20 21:33N 37°26' E 009°21'1717.2
2014-Sep-20 20:33N 37°22' E 008°59'1716.8
2014-Sep-20 19:33N 37°19' E 008°39'1716.5
2014-Sep-20 18:33N 37°20' E 008°18'1716.6
2014-Sep-20 17:32N 37°21' E 007°57'10516.6
2014-Sep-20 11:11N 37°21' E 005°45'1116.4
2014-Sep-20 10:30N 37°20' E 005°30'1616.7
2014-Sep-20 09:33N 37°20' E 005°11'5117.1
2014-Sep-20 06:33N 37°21' E 004°06'1018.0
2014-Sep-20 06:00N 37°18' E 003°54'919.6 210 / 201014.9 5.4 27.120.1
2014-Sep-20 05:31N 37°22' E 003°43'1617.0
2014-Sep-20 04:33N 37°22' E 003°23'1816.9
2014-Sep-20 03:28N 37°21' E 002°60'1616.9
2014-Sep-20 02:33N 37°20' E 002°40'1716.9
2014-Sep-20 01:33N 37°20' E 002°19'1716.7
2014-Sep-20 00:33N 37°19' E 001°58'1616.3
2014-Sep-19 23:33N 37°18' E 001°37'3916.3
2014-Sep-19 21:10N 37°16' E 000°48'739.9
2014-Sep-19 21:00N 37°12' E 000°42'614.8 040 / 71014.210.8 24.421.4
2014-Sep-19 20:33N 37°16' E 000°36'1716.6
2014-Sep-19 19:33N 37°15' E 000°15'1616.3
2014-Sep-19 18:33N 37°17' W 000°05'5 9.4
2014-Sep-19 18:00N 37°18' W 000°12'1125.6 290 / 301012.510.8 25.018.426.3
2014-Sep-19 17:33N 37°22' W 000°25'1616.1
2014-Sep-19 16:33N 37°26' W 000°45'  
2014-Sep-15 19:13N 37°18' W 001°01'3217.9
2014-Sep-15 17:27N 36°54' W 001°28'39516.8
2014-Sep-14 18:00N 37°00' W 009°42'   290 / 101013.810.8 23.018.323.5

Dump ship's entire track history